createdAt,value
2023-01-17T00:02:15.515Z,0.57
2023-01-17T00:05:21.180Z,0.50
2023-01-17T00:08:30.590Z,0.50
2023-01-17T00:11:17.540Z,0.40
2023-01-17T00:14:04.500Z,0.50
2023-01-17T00:16:51.392Z,0.50
2023-01-17T00:19:57.338Z,0.40
2023-01-17T00:23:03.109Z,1.60
2023-01-17T00:26:05.357Z,0.40
2023-01-17T00:28:52.586Z,0.47
2023-01-17T00:31:39.495Z,0.50
2023-01-17T00:34:26.396Z,1.30
2023-01-17T00:37:13.255Z,0.33
2023-01-17T00:40:00.139Z,0.50
2023-01-17T00:42:47.678Z,0.50
2023-01-17T00:45:53.479Z,0.40
2023-01-17T00:48:59.865Z,0.30
2023-01-17T00:52:05.201Z,0.40
2023-01-17T00:55:10.747Z,0.30
2023-01-17T00:58:16.423Z,0.40
2023-01-17T01:01:25.622Z,0.40
2023-01-17T01:04:31.068Z,0.33
2023-01-17T01:07:36.830Z,0.47
2023-01-17T01:10:42.547Z,0.30
2023-01-17T01:13:49.117Z,0.40
2023-01-17T01:16:55.376Z,0.30
2023-01-17T01:20:01.104Z,0.43
2023-01-17T01:23:06.708Z,0.40
2023-01-17T01:26:12.323Z,0.73
2023-01-17T01:29:17.957Z,0.77
2023-01-17T01:32:23.602Z,0.43
2023-01-17T01:35:10.564Z,0.37
2023-01-17T01:37:57.512Z,0.40
2023-01-17T01:40:47.116Z,0.30
2023-01-17T01:43:54.280Z,0.30
2023-01-17T01:46:41.593Z,0.37
2023-01-17T01:49:29.802Z,0.30
2023-01-17T01:52:19.192Z,0.30
2023-01-17T01:55:20.696Z,0.60
2023-01-17T01:58:14.825Z,0.33
2023-01-17T02:01:01.992Z,0.37
2023-01-17T02:03:49.415Z,0.37
2023-01-17T02:06:41.918Z,0.50
2023-01-17T02:09:28.844Z,0.30
2023-01-17T02:12:17.352Z,0.30
2023-01-17T02:15:07.456Z,0.40
2023-01-17T02:18:07.484Z,0.20
2023-01-17T02:21:01.794Z,0.30
2023-01-17T02:24:07.192Z,0.40
2023-01-17T02:27:07.148Z,0.40
2023-01-17T02:30:12.784Z,1.23
2023-01-17T02:33:44.470Z,0.83
2023-01-17T02:36:53.846Z,0.40
2023-01-17T02:39:51.216Z,0.40
2023-01-17T02:42:45.790Z,0.27
2023-01-17T02:45:32.745Z,0.27
2023-01-17T02:48:24.533Z,0.40
2023-01-17T02:51:38.803Z,0.40
2023-01-17T02:54:52.287Z,0.30
2023-01-17T02:58:06.617Z,0.30
2023-01-17T03:01:11.793Z,0.20
2023-01-17T03:04:05.925Z,0.30
2023-01-17T03:07:09.327Z,0.30
2023-01-17T03:10:00.811Z,0.77
2023-01-17T03:12:48.001Z,0.57
2023-01-17T03:15:34.918Z,0.30
2023-01-17T03:18:21.881Z,0.40
2023-01-17T03:21:08.815Z,0.47
2023-01-17T03:23:55.780Z,0.87
2023-01-17T03:26:44.992Z,0.30
2023-01-17T03:29:32.074Z,0.83
2023-01-17T03:32:18.971Z,0.40
2023-01-17T03:35:06.476Z,0.73
2023-01-17T03:37:53.396Z,0.63
2023-01-17T03:40:40.649Z,0.40
2023-01-17T03:43:27.530Z,0.30
2023-01-17T03:46:20.656Z,0.40
2023-01-17T03:49:08.479Z,0.40
2023-01-17T03:51:55.414Z,0.40
2023-01-17T03:54:42.334Z,0.97
2023-01-17T03:57:31.335Z,0.60
2023-01-17T04:00:18.636Z,0.30
2023-01-17T04:03:05.627Z,0.30
2023-01-17T04:05:52.542Z,0.37
2023-01-17T04:08:39.524Z,0.50
2023-01-17T04:11:26.422Z,0.40
2023-01-17T04:14:13.514Z,0.20
2023-01-17T04:17:01.344Z,0.30
2023-01-17T04:19:48.377Z,0.67
2023-01-17T04:22:35.323Z,0.40
2023-01-17T04:25:22.229Z,0.37
2023-01-17T04:28:10.655Z,0.57
2023-01-17T04:30:59.643Z,0.47
2023-01-17T04:33:46.621Z,0.83
2023-01-17T04:36:33.587Z,0.40
2023-01-17T04:39:20.537Z,0.40
2023-01-17T04:42:07.555Z,0.37
2023-01-17T04:44:54.536Z,0.67
2023-01-17T04:47:41.533Z,1.03
2023-01-17T04:50:28.449Z,0.53
2023-01-17T04:53:15.378Z,0.90
2023-01-17T04:56:02.965Z,1.23
2023-01-17T04:58:49.986Z,0.73
2023-01-17T05:01:37.003Z,0.40
2023-01-17T05:04:24.226Z,0.50
2023-01-17T05:07:11.454Z,0.93
2023-01-17T05:10:00.798Z,0.57
2023-01-17T05:12:58.418Z,0.70
2023-01-17T05:15:46.741Z,0.50
2023-01-17T05:18:33.803Z,0.60
2023-01-17T05:21:21.778Z,0.60
2023-01-17T05:24:08.722Z,0.40
2023-01-17T05:26:55.646Z,0.60
2023-01-17T05:29:42.709Z,0.60
2023-01-17T05:32:29.806Z,0.50
2023-01-17T05:35:19.512Z,0.43
2023-01-17T05:38:06.519Z,1.03
2023-01-17T05:40:53.426Z,0.67
2023-01-17T05:43:40.412Z,0.60
2023-01-17T05:46:27.337Z,0.40
2023-01-17T05:49:14.299Z,1.03
2023-01-17T05:52:02.147Z,0.60
2023-01-17T05:54:50.563Z,0.63
2023-01-17T05:57:38.638Z,0.50
2023-01-17T06:00:25.751Z,0.63
2023-01-17T06:03:13.496Z,0.57
2023-01-17T06:06:00.443Z,1.40
2023-01-17T06:08:47.521Z,0.53
2023-01-17T06:11:34.663Z,0.50
2023-01-17T06:14:21.637Z,0.50
2023-01-17T06:17:08.664Z,0.67
2023-01-17T06:19:55.575Z,0.50
2023-01-17T06:22:42.505Z,0.60
2023-01-17T06:25:29.473Z,0.73
2023-01-17T06:28:18.548Z,0.67
2023-01-17T06:31:07.880Z,0.40
2023-01-17T06:33:55.350Z,0.70
2023-01-17T06:36:42.314Z,0.70
2023-01-17T06:39:29.289Z,0.60
2023-01-17T06:42:16.245Z,0.60
2023-01-17T06:45:03.429Z,0.93
2023-01-17T06:47:50.441Z,0.40
2023-01-17T06:50:38.005Z,0.50
2023-01-17T06:53:25.154Z,0.50
2023-01-17T06:56:12.051Z,0.50
2023-01-17T06:58:59.006Z,1.90
2023-01-17T07:01:45.976Z,0.50
2023-01-17T07:04:34.374Z,0.93
2023-01-17T07:07:21.349Z,1.27
2023-01-17T07:10:08.983Z,0.60
2023-01-17T07:13:02.500Z,0.70
2023-01-17T07:15:49.525Z,0.73
2023-01-17T07:18:36.563Z,0.83
2023-01-17T07:21:23.755Z,1.20
2023-01-17T07:24:10.723Z,0.80
2023-01-17T07:26:57.645Z,0.60
2023-01-17T07:29:44.577Z,0.83
2023-01-17T07:32:31.705Z,0.70
2023-01-17T07:35:19.150Z,0.70
2023-01-17T07:38:11.272Z,0.70
2023-01-17T07:40:59.932Z,1.10
2023-01-17T07:43:46.868Z,1.10
2023-01-17T07:46:34.437Z,0.90
2023-01-17T07:49:21.392Z,1.00
2023-01-17T07:52:09.448Z,1.20
2023-01-17T07:54:56.455Z,1.00
2023-01-17T07:57:43.405Z,1.00
2023-01-17T08:00:30.756Z,0.90
2023-01-17T08:03:18.252Z,0.67
2023-01-17T08:06:20.150Z,0.60
2023-01-17T08:09:07.165Z,0.60
2023-01-17T08:11:54.064Z,0.60
2023-01-17T08:14:41.079Z,0.90
2023-01-17T08:17:28.347Z,0.63
2023-01-17T08:20:16.429Z,0.60
2023-01-17T08:23:03.415Z,0.60
2023-01-17T08:25:50.344Z,0.87
2023-01-17T08:28:37.321Z,0.73
2023-01-17T08:31:24.754Z,0.73
2023-01-17T08:34:11.831Z,1.87
2023-01-17T08:36:58.751Z,0.70
2023-01-17T08:39:45.683Z,0.80
2023-01-17T08:42:39.124Z,1.10
2023-01-17T08:45:27.524Z,1.07
2023-01-17T08:48:15.589Z,0.73
2023-01-17T08:51:03.235Z,0.70
2023-01-17T08:53:50.187Z,1.10
2023-01-17T08:56:37.140Z,1.30
2023-01-17T08:59:24.039Z,0.87
2023-01-17T09:02:15.715Z,0.90
2023-01-17T09:05:02.874Z,0.80
2023-01-17T09:07:49.822Z,0.80
2023-01-17T09:10:36.957Z,0.77
2023-01-17T09:13:23.923Z,1.63
2023-01-17T09:16:10.939Z,0.83
2023-01-17T09:18:59.036Z,0.70
2023-01-17T09:21:45.964Z,0.90
2023-01-17T09:24:33.425Z,1.10
2023-01-17T09:27:20.918Z,0.90
2023-01-17T09:30:08.572Z,0.80
2023-01-17T09:32:55.716Z,0.97
2023-01-17T09:35:42.647Z,1.23
2023-01-17T09:38:30.151Z,1.07
2023-01-17T09:41:19.760Z,1.13
2023-01-17T09:44:31.017Z,1.20
2023-01-17T09:47:55.333Z,1.20
2023-01-17T09:50:50.511Z,1.40
2023-01-17T09:53:41.506Z,1.83
2023-01-17T09:56:37.042Z,1.00
2023-01-17T10:00:02.689Z,0.70
2023-01-17T10:03:21.809Z,0.70
2023-01-17T10:06:27.741Z,0.80
2023-01-17T10:09:48.749Z,0.80
2023-01-17T10:12:58.535Z,0.60
2023-01-17T10:16:09.548Z,0.70
2023-01-17T10:19:35.172Z,0.70
2023-01-17T10:22:49.348Z,0.60
2023-01-17T10:25:43.209Z,0.70
2023-01-17T10:28:51.159Z,0.87
2023-01-17T10:31:45.782Z,1.27
2023-01-17T10:34:47.539Z,0.80
2023-01-17T10:37:43.503Z,0.67
2023-01-17T10:40:42.739Z,0.90
2023-01-17T10:43:50.177Z,0.67
2023-01-17T10:46:52.592Z,0.70
2023-01-17T10:49:43.807Z,0.70
2023-01-17T10:52:46.323Z,1.00
2023-01-17T10:55:53.253Z,1.00
2023-01-17T10:58:40.242Z,1.00
2023-01-17T11:01:27.234Z,1.40
2023-01-17T11:04:39.393Z,1.03
2023-01-17T11:07:28.426Z,0.90
2023-01-17T11:10:35.482Z,0.60
2023-01-17T11:13:24.868Z,1.00
2023-01-17T11:16:21.100Z,0.80
2023-01-17T11:19:21.998Z,0.80
2023-01-17T11:22:14.753Z,0.90
2023-01-17T11:25:02.552Z,1.00
2023-01-17T11:28:02.488Z,0.80
2023-01-17T11:30:55.623Z,0.90
2023-01-17T11:33:55.552Z,0.80
2023-01-17T11:36:43.137Z,0.80
2023-01-17T11:39:30.248Z,0.90
2023-01-17T11:42:35.197Z,0.80
2023-01-17T11:45:28.012Z,0.70
2023-01-17T11:48:17.311Z,0.90
2023-01-17T11:51:16.559Z,1.10
2023-01-17T11:54:28.480Z,0.73
2023-01-17T11:57:31.308Z,0.90
2023-01-17T12:00:46.016Z,0.80
2023-01-17T12:03:49.756Z,1.00
2023-01-17T12:06:56.796Z,0.87
2023-01-17T12:09:56.384Z,0.70
2023-01-17T12:13:19.513Z,0.80
2023-01-17T12:16:31.872Z,0.70
2023-01-17T12:19:32.321Z,0.70
2023-01-17T12:22:38.103Z,0.80
2023-01-17T12:25:36.583Z,0.80
2023-01-17T12:28:51.844Z,0.90
2023-01-17T12:32:10.400Z,0.50
2023-01-17T12:35:03.245Z,1.03
2023-01-17T12:38:04.937Z,0.60
2023-01-17T12:41:07.025Z,0.70
2023-01-17T12:43:59.038Z,0.80
2023-01-17T12:46:54.485Z,0.90
2023-01-17T12:50:03.225Z,0.90
2023-01-17T12:53:14.625Z,1.10
2023-01-17T12:56:22.570Z,0.80
2023-01-17T12:59:36.816Z,0.83
2023-01-17T13:02:36.433Z,1.03
2023-01-17T13:05:33.092Z,0.70
2023-01-17T13:08:41.724Z,0.70
2023-01-17T13:11:46.475Z,0.70
2023-01-17T13:14:33.558Z,0.80
2023-01-17T13:17:31.618Z,0.83
2023-01-17T13:20:56.596Z,1.10
2023-01-17T13:23:58.999Z,0.90
2023-01-17T13:26:55.154Z,1.00
2023-01-17T13:30:15.296Z,0.93
2023-01-17T13:33:39.590Z,0.70
2023-01-17T13:36:51.665Z,0.70
2023-01-17T13:40:03.575Z,0.60
2023-01-17T13:42:58.479Z,0.80
2023-01-17T13:45:54.053Z,0.83
2023-01-17T13:48:41.097Z,0.60
2023-01-17T13:52:12.599Z,0.90
2023-01-17T13:55:02.542Z,0.60
2023-01-17T13:57:49.469Z,0.67
2023-01-17T14:00:45.367Z,0.80
2023-01-17T14:03:53.755Z,1.27
2023-01-17T14:06:44.600Z,0.90
2023-01-17T14:09:42.536Z,0.90
2023-01-17T14:12:32.900Z,0.70
2023-01-17T14:15:22.660Z,1.00
2023-01-17T14:18:34.205Z,0.80
2023-01-17T14:21:27.362Z,0.80
2023-01-17T14:24:18.049Z,1.07
2023-01-17T14:27:23.951Z,0.97
2023-01-17T14:30:17.523Z,0.80
2023-01-17T14:33:17.182Z,0.90
2023-01-17T14:36:07.170Z,0.77
2023-01-17T14:38:54.180Z,0.90
2023-01-17T14:41:41.102Z,0.80
2023-01-17T14:44:28.059Z,1.20
2023-01-17T14:47:16.769Z,0.87
2023-01-17T14:50:23.432Z,0.90
2023-01-17T14:53:13.388Z,1.80
2023-01-17T14:56:03.593Z,0.97
2023-01-17T14:59:04.954Z,2.10
2023-01-17T15:02:06.750Z,2.53
2023-01-17T15:04:55.242Z,2.10
2023-01-17T15:07:45.766Z,2.60
2023-01-17T15:10:33.995Z,3.07
2023-01-17T15:13:38.791Z,2.30
2023-01-17T15:16:36.198Z,2.40
2023-01-17T15:19:23.555Z,1.60
2023-01-17T15:22:11.534Z,1.20
2023-01-17T15:24:59.955Z,1.77
2023-01-17T15:27:47.115Z,1.77
2023-01-17T15:30:34.409Z,1.40
2023-01-17T15:33:21.469Z,1.70
2023-01-17T15:36:14.317Z,1.43
2023-01-17T15:39:05.509Z,1.47
2023-01-17T15:41:55.527Z,1.40
2023-01-17T15:44:48.934Z,1.43
2023-01-17T15:47:38.814Z,1.70
2023-01-17T15:50:30.535Z,1.70
2023-01-17T15:53:30.804Z,1.50
2023-01-17T15:56:30.529Z,1.30
2023-01-17T15:59:36.204Z,1.13
2023-01-17T16:02:37.701Z,1.87
2023-01-17T16:05:30.799Z,3.20
2023-01-17T16:08:24.087Z,3.53
2023-01-17T16:11:11.556Z,2.30
2023-01-17T16:13:58.484Z,1.90
2023-01-17T16:16:52.540Z,3.03
2023-01-17T16:19:39.632Z,3.60
2023-01-17T16:22:27.201Z,6.37
2023-01-17T16:25:17.583Z,5.47
2023-01-17T16:28:05.413Z,4.10
2023-01-17T16:30:53.916Z,2.40
2023-01-17T16:33:42.299Z,2.10
2023-01-17T16:36:29.235Z,1.80
2023-01-17T16:39:16.193Z,1.70
2023-01-17T16:42:03.357Z,1.40
2023-01-17T16:44:50.327Z,1.90
2023-01-17T16:47:37.751Z,2.00
2023-01-17T16:50:25.175Z,1.97
2023-01-17T16:53:12.139Z,2.17
2023-01-17T16:56:07.758Z,1.60
2023-01-17T16:58:54.728Z,1.50
2023-01-17T17:01:41.711Z,1.40
2023-01-17T17:04:28.662Z,1.30
2023-01-17T17:07:15.658Z,1.57
2023-01-17T17:10:02.579Z,1.30
2023-01-17T17:12:49.573Z,1.40
2023-01-17T17:15:41.456Z,1.40
2023-01-17T17:18:28.496Z,1.33
2023-01-17T17:21:15.457Z,1.73
2023-01-17T17:24:03.132Z,1.60
2023-01-17T17:26:50.097Z,1.60
2023-01-17T17:29:37.006Z,1.67
2023-01-17T17:32:24.362Z,2.30
2023-01-17T17:35:11.403Z,1.30
2023-01-17T17:37:58.344Z,1.50
2023-01-17T17:40:46.228Z,1.77
2023-01-17T17:43:37.911Z,1.60
2023-01-17T17:46:27.162Z,1.80
2023-01-17T17:49:16.824Z,1.90
2023-01-17T17:52:05.325Z,1.37
2023-01-17T17:54:52.521Z,2.50
2023-01-17T17:57:39.471Z,3.50
2023-01-17T18:00:26.481Z,2.50
2023-01-17T18:03:13.445Z,2.27
2023-01-17T18:06:11.438Z,2.40
2023-01-17T18:08:58.375Z,2.10
2023-01-17T18:11:45.334Z,2.07
2023-01-17T18:14:32.396Z,1.43
2023-01-17T18:17:20.355Z,1.97
2023-01-17T18:20:07.920Z,2.40
2023-01-17T18:22:54.908Z,2.10
2023-01-17T18:25:43.144Z,1.97
2023-01-17T18:28:30.155Z,2.00
2023-01-17T18:31:17.152Z,1.50
2023-01-17T18:34:07.049Z,1.50
2023-01-17T18:36:54.149Z,1.70
2023-01-17T18:39:41.179Z,2.30
2023-01-17T18:42:28.490Z,1.63
2023-01-17T18:45:16.160Z,1.33
2023-01-17T18:48:03.314Z,1.93
2023-01-17T18:51:04.621Z,1.33
2023-01-17T18:53:52.965Z,2.47
2023-01-17T18:56:40.205Z,2.63
2023-01-17T18:59:27.249Z,2.43
2023-01-17T19:02:14.519Z,2.57
2023-01-17T19:05:05.425Z,5.33
2023-01-17T19:07:52.714Z,1.83
2023-01-17T19:10:39.801Z,1.27
2023-01-17T19:13:27.133Z,1.40
2023-01-17T19:16:20.348Z,1.30
2023-01-17T19:19:10.015Z,1.73
2023-01-17T19:21:56.993Z,1.70
2023-01-17T19:24:43.952Z,1.37
2023-01-17T19:27:30.902Z,1.30
2023-01-17T19:30:19.470Z,1.43
2023-01-17T19:33:06.437Z,1.93
2023-01-17T19:35:58.214Z,2.33
2023-01-17T19:38:58.633Z,2.20
2023-01-17T19:41:51.036Z,2.00
2023-01-17T19:44:38.148Z,1.60
2023-01-17T19:47:25.069Z,2.33
2023-01-17T19:50:12.396Z,2.20
2023-01-17T19:52:59.311Z,1.80
2023-01-17T19:55:46.871Z,1.50
2023-01-17T19:58:34.829Z,1.80
2023-01-17T20:01:26.538Z,2.23
2023-01-17T20:04:13.579Z,1.87
2023-01-17T20:07:00.528Z,3.00
2023-01-17T20:09:47.522Z,2.70
2023-01-17T20:12:34.411Z,2.97
2023-01-17T20:15:23.889Z,2.90
2023-01-17T20:18:12.617Z,2.07
2023-01-17T20:21:04.751Z,1.43
2023-01-17T20:23:53.139Z,1.43
2023-01-17T20:26:41.184Z,1.60
2023-01-17T20:29:28.119Z,1.40
2023-01-17T20:32:15.092Z,1.50
2023-01-17T20:35:02.040Z,2.10
2023-01-17T20:37:52.173Z,1.57
2023-01-17T20:40:39.119Z,1.47
2023-01-17T20:43:26.050Z,1.80
2023-01-17T20:46:14.064Z,2.00
2023-01-17T20:49:04.601Z,3.40
2023-01-17T20:51:54.310Z,3.57
2023-01-17T20:54:43.195Z,2.80
2023-01-17T20:57:31.253Z,2.20
2023-01-17T21:00:18.531Z,2.70
2023-01-17T21:03:05.456Z,2.77
2023-01-17T21:05:52.427Z,2.83
2023-01-17T21:08:41.667Z,2.80
2023-01-17T21:11:28.717Z,2.47
2023-01-17T21:14:15.784Z,2.40
2023-01-17T21:17:02.745Z,2.97
2023-01-17T21:19:49.726Z,2.30
2023-01-17T21:22:36.670Z,2.47
2023-01-17T21:25:23.582Z,2.30
2023-01-17T21:28:10.537Z,2.77
2023-01-17T21:30:57.668Z,2.50
2023-01-17T21:33:45.123Z,2.30
2023-01-17T21:36:35.401Z,2.20
2023-01-17T21:39:22.535Z,2.57
2023-01-17T21:42:09.654Z,2.33
2023-01-17T21:44:56.627Z,2.00
2023-01-17T21:47:44.468Z,2.20
2023-01-17T21:50:33.692Z,2.20
2023-01-17T21:53:20.768Z,2.93
2023-01-17T21:56:30.076Z,2.40
2023-01-17T21:59:17.128Z,2.43
2023-01-17T22:02:04.063Z,2.87
2023-01-17T22:04:51.402Z,3.57
2023-01-17T22:07:39.045Z,3.27
2023-01-17T22:10:25.990Z,2.80
2023-01-17T22:13:18.155Z,3.03
2023-01-17T22:16:07.769Z,3.13
2023-01-17T22:18:54.834Z,3.20
2023-01-17T22:21:43.784Z,3.00
2023-01-17T22:24:30.767Z,3.13
2023-01-17T22:27:17.903Z,3.23
2023-01-17T22:30:06.669Z,3.20
2023-01-17T22:32:56.457Z,3.40
2023-01-17T22:35:43.638Z,3.70
2023-01-17T22:38:31.420Z,2.70
2023-01-17T22:41:23.705Z,3.33
2023-01-17T22:44:11.195Z,3.43
2023-01-17T22:46:58.198Z,3.17
2023-01-17T22:49:45.154Z,3.50
2023-01-17T22:52:32.400Z,3.00
2023-01-17T22:55:19.444Z,3.30
2023-01-17T22:58:06.738Z,3.10
2023-01-17T23:00:53.659Z,3.23
2023-01-17T23:03:41.753Z,3.30
2023-01-17T23:06:34.361Z,3.73
2023-01-17T23:09:21.332Z,3.90
2023-01-17T23:12:08.449Z,3.10
2023-01-17T23:15:13.913Z,3.47
2023-01-17T23:18:19.167Z,3.30
2023-01-17T23:21:07.927Z,2.97
2023-01-17T23:23:54.861Z,3.30
2023-01-17T23:27:01.730Z,3.30
2023-01-17T23:29:48.681Z,2.97
2023-01-17T23:32:35.653Z,3.20
2023-01-17T23:35:25.103Z,3.03
2023-01-17T23:38:33.831Z,3.07
2023-01-17T23:41:59.516Z,2.80
2023-01-17T23:44:46.473Z,3.03
2023-01-17T23:47:33.381Z,3.23
2023-01-17T23:50:20.453Z,4.13
2023-01-17T23:53:08.531Z,3.50
2023-01-17T23:55:56.674Z,3.40
2023-01-17T23:58:43.664Z,2.93
